sensor_id;sensor_type;location;lat;lon;timestamp;P1;durP1;ratioP1;P2;durP2;ratioP2
11620;SDS011;5866;49.094;11.900;2024-02-26T00:00:44;93.57;;;77.33;;
11620;SDS011;5866;49.094;11.900;2024-02-26T00:03:13;93.00;;;74.67;;
11620;SDS011;5866;49.094;11.900;2024-02-26T00:05:42;88.57;;;66.53;;
11620;SDS011;5866;49.094;11.900;2024-02-26T00:08:09;85.07;;;63.07;;
11620;SDS011;5866;49.094;11.900;2024-02-26T00:10:37;81.07;;;59.10;;
11620;SDS011;5866;49.094;11.900;2024-02-26T00:13:04;92.90;;;77.90;;
11620;SDS011;5866;49.094;11.900;2024-02-26T00:15:32;97.33;;;74.17;;
11620;SDS011;5866;49.094;11.900;2024-02-26T00:18:01;97.67;;;87.43;;
11620;SDS011;5866;49.094;11.900;2024-02-26T00:20:29;87.10;;;64.13;;
11620;SDS011;5866;49.094;11.900;2024-02-26T00:22:57;95.63;;;66.40;;
11620;SDS011;5866;49.094;11.900;2024-02-26T00:25:24;95.87;;;66.73;;
11620;SDS011;5866;49.094;11.900;2024-02-26T00:27:52;91.90;;;63.57;;
11620;SDS011;5866;49.094;11.900;2024-02-26T00:30:20;100.10;;;71.93;;
11620;SDS011;5866;49.094;11.900;2024-02-26T00:32:46;82.30;;;50.80;;
11620;SDS011;5866;49.094;11.900;2024-02-26T00:35:14;102.13;;;72.10;;
11620;SDS011;5866;49.094;11.900;2024-02-26T00:37:42;89.00;;;60.97;;
11620;SDS011;5866;49.094;11.900;2024-02-26T00:40:12;94.70;;;58.83;;
11620;SDS011;5866;49.094;11.900;2024-02-26T00:42:39;88.20;;;54.87;;
11620;SDS011;5866;49.094;11.900;2024-02-26T00:45:11;93.53;;;56.57;;
11620;SDS011;5866;49.094;11.900;2024-02-26T00:47:39;87.87;;;52.77;;
11620;SDS011;5866;49.094;11.900;2024-02-26T00:50:07;88.77;;;56.93;;
11620;SDS011;5866;49.094;11.900;2024-02-26T00:52:35;83.27;;;51.60;;
11620;SDS011;5866;49.094;11.900;2024-02-26T00:55:03;86.37;;;57.57;;
11620;SDS011;5866;49.094;11.900;2024-02-26T00:57:33;93.90;;;69.30;;
11620;SDS011;5866;49.094;11.900;2024-02-26T01:00:01;93.97;;;60.17;;
11620;SDS011;5866;49.094;11.900;2024-02-26T01:02:29;81.23;;;51.97;;
11620;SDS011;5866;49.094;11.900;2024-02-26T01:04:57;86.13;;;59.10;;
11620;SDS011;5866;49.094;11.900;2024-02-26T01:07:25;84.53;;;56.50;;
11620;SDS011;5866;49.094;11.900;2024-02-26T01:09:51;91.67;;;75.60;;
11620;SDS011;5866;49.094;11.900;2024-02-26T01:12:19;91.23;;;68.93;;
11620;SDS011;5866;49.094;11.900;2024-02-26T01:14:48;99.27;;;73.87;;
11620;SDS011;5866;49.094;11.900;2024-02-26T01:17:16;88.33;;;59.23;;
11620;SDS011;5866;49.094;11.900;2024-02-26T01:19:44;84.67;;;54.93;;
11620;SDS011;5866;49.094;11.900;2024-02-26T01:22:11;80.07;;;45.20;;
11620;SDS011;5866;49.094;11.900;2024-02-26T01:24:39;70.67;;;43.27;;
11620;SDS011;5866;49.094;11.900;2024-02-26T01:27:07;71.13;;;43.20;;
11620;SDS011;5866;49.094;11.900;2024-02-26T01:29:35;73.83;;;46.30;;
11620;SDS011;5866;49.094;11.900;2024-02-26T01:32:04;73.03;;;44.57;;
11620;SDS011;5866;49.094;11.900;2024-02-26T01:34:32;80.23;;;63.80;;
11620;SDS011;5866;49.094;11.900;2024-02-26T01:37:00;78.80;;;52.23;;
11620;SDS011;5866;49.094;11.900;2024-02-26T01:39:28;72.50;;;48.33;;
11620;SDS011;5866;49.094;11.900;2024-02-26T01:41:56;79.37;;;49.13;;
11620;SDS011;5866;49.094;11.900;2024-02-26T01:44:24;79.13;;;54.77;;
11620;SDS011;5866;49.094;11.900;2024-02-26T01:46:53;79.37;;;64.63;;
11620;SDS011;5866;49.094;11.900;2024-02-26T01:49:22;86.07;;;75.43;;
11620;SDS011;5866;49.094;11.900;2024-02-26T01:51:50;87.10;;;68.90;;
11620;SDS011;5866;49.094;11.900;2024-02-26T01:54:18;81.80;;;69.80;;
11620;SDS011;5866;49.094;11.900;2024-02-26T01:56:46;87.43;;;72.50;;
11620;SDS011;5866;49.094;11.900;2024-02-26T01:59:13;81.53;;;58.13;;
11620;SDS011;5866;49.094;11.900;2024-02-26T02:01:41;69.83;;;51.93;;
11620;SDS011;5866;49.094;11.900;2024-02-26T02:04:12;74.97;;;53.43;;
11620;SDS011;5866;49.094;11.900;2024-02-26T02:06:41;81.63;;;57.73;;
11620;SDS011;5866;49.094;11.900;2024-02-26T02:09:12;72.83;;;49.87;;
11620;SDS011;5866;49.094;11.900;2024-02-26T02:11:40;68.83;;;37.70;;
11620;SDS011;5866;49.094;11.900;2024-02-26T02:14:08;74.67;;;39.93;;
11620;SDS011;5866;49.094;11.900;2024-02-26T02:16:36;64.67;;;40.73;;
11620;SDS011;5866;49.094;11.900;2024-02-26T02:19:03;61.83;;;37.03;;
11620;SDS011;5866;49.094;11.900;2024-02-26T02:21:32;71.63;;;45.47;;
11620;SDS011;5866;49.094;11.900;2024-02-26T02:24:00;75.73;;;62.47;;
11620;SDS011;5866;49.094;11.900;2024-02-26T02:26:28;68.73;;;55.17;;
11620;SDS011;5866;49.094;11.900;2024-02-26T02:28:55;69.47;;;49.23;;
11620;SDS011;5866;49.094;11.900;2024-02-26T02:31:23;63.17;;;47.10;;
11620;SDS011;5866;49.094;11.900;2024-02-26T02:33:51;68.30;;;42.50;;
11620;SDS011;5866;49.094;11.900;2024-02-26T02:36:19;62.17;;;42.60;;
11620;SDS011;5866;49.094;11.900;2024-02-26T02:38:51;58.97;;;33.80;;
11620;SDS011;5866;49.094;11.900;2024-02-26T02:41:19;58.50;;;35.03;;
11620;SDS011;5866;49.094;11.900;2024-02-26T02:43:47;65.47;;;48.57;;
11620;SDS011;5866;49.094;11.900;2024-02-26T02:46:15;63.53;;;42.80;;
11620;SDS011;5866;49.094;11.900;2024-02-26T02:48:43;56.60;;;42.37;;
11620;SDS011;5866;49.094;11.900;2024-02-26T02:51:11;55.87;;;38.03;;
11620;SDS011;5866;49.094;11.900;2024-02-26T02:53:38;54.00;;;34.40;;
11620;SDS011;5866;49.094;11.900;2024-02-26T02:56:07;48.17;;;35.80;;
11620;SDS011;5866;49.094;11.900;2024-02-26T02:58:35;52.27;;;38.63;;
11620;SDS011;5866;49.094;11.900;2024-02-26T03:01:03;52.80;;;47.07;;
11620;SDS011;5866;49.094;11.900;2024-02-26T03:03:30;38.67;;;31.37;;
11620;SDS011;5866;49.094;11.900;2024-02-26T03:05:58;89.93;;;82.50;;
11620;SDS011;5866;49.094;11.900;2024-02-26T03:08:26;48.30;;;42.97;;
11620;SDS011;5866;49.094;11.900;2024-02-26T03:10:53;52.73;;;40.27;;
11620;SDS011;5866;49.094;11.900;2024-02-26T03:13:22;60.57;;;54.77;;
11620;SDS011;5866;49.094;11.900;2024-02-26T03:15:50;66.40;;;60.53;;
11620;SDS011;5866;49.094;11.900;2024-02-26T03:18:17;96.33;;;86.33;;
11620;SDS011;5866;49.094;11.900;2024-02-26T03:20:45;70.77;;;63.83;;
11620;SDS011;5866;49.094;11.900;2024-02-26T03:23:13;53.70;;;47.83;;
11620;SDS011;5866;49.094;11.900;2024-02-26T03:25:42;58.80;;;52.40;;
11620;SDS011;5866;49.094;11.900;2024-02-26T03:28:12;52.13;;;41.83;;
11620;SDS011;5866;49.094;11.900;2024-02-26T03:30:41;50.30;;;38.73;;
11620;SDS011;5866;49.094;11.900;2024-02-26T03:33:09;38.50;;;31.50;;
11620;SDS011;5866;49.094;11.900;2024-02-26T03:35:37;38.53;;;32.67;;
11620;SDS011;5866;49.094;11.900;2024-02-26T03:38:05;50.27;;;45.10;;
11620;SDS011;5866;49.094;11.900;2024-02-26T03:40:32;36.37;;;32.47;;
11620;SDS011;5866;49.094;11.900;2024-02-26T03:42:59;44.67;;;40.03;;
11620;SDS011;5866;49.094;11.900;2024-02-26T03:45:26;53.03;;;48.10;;
11620;SDS011;5866;49.094;11.900;2024-02-26T03:47:56;47.07;;;42.43;;
11620;SDS011;5866;49.094;11.900;2024-02-26T03:50:23;49.00;;;40.90;;
11620;SDS011;5866;49.094;11.900;2024-02-26T03:52:51;44.83;;;37.77;;
11620;SDS011;5866;49.094;11.900;2024-02-26T03:55:20;37.33;;;29.97;;
11620;SDS011;5866;49.094;11.900;2024-02-26T03:57:51;44.67;;;35.43;;
11620;SDS011;5866;49.094;11.900;2024-02-26T04:00:19;43.73;;;37.47;;
11620;SDS011;5866;49.094;11.900;2024-02-26T04:02:48;35.63;;;31.37;;
11620;SDS011;5866;49.094;11.900;2024-02-26T04:05:17;35.87;;;30.43;;
11620;SDS011;5866;49.094;11.900;2024-02-26T04:07:45;38.77;;;31.87;;
11620;SDS011;5866;49.094;11.900;2024-02-26T04:10:13;31.87;;;28.40;;
11620;SDS011;5866;49.094;11.900;2024-02-26T04:12:41;32.70;;;29.37;;
11620;SDS011;5866;49.094;11.900;2024-02-26T04:15:10;33.00;;;26.53;;
11620;SDS011;5866;49.094;11.900;2024-02-26T04:17:38;29.50;;;26.30;;
11620;SDS011;5866;49.094;11.900;2024-02-26T04:20:06;30.40;;;27.10;;
11620;SDS011;5866;49.094;11.900;2024-02-26T04:22:37;28.90;;;25.90;;
11620;SDS011;5866;49.094;11.900;2024-02-26T04:25:05;37.03;;;33.40;;
11620;SDS011;5866;49.094;11.900;2024-02-26T04:27:33;39.47;;;35.57;;
11620;SDS011;5866;49.094;11.900;2024-02-26T04:30:00;42.27;;;38.37;;
11620;SDS011;5866;49.094;11.900;2024-02-26T04:32:28;34.60;;;31.20;;
11620;SDS011;5866;49.094;11.900;2024-02-26T04:34:55;35.10;;;31.63;;
11620;SDS011;5866;49.094;11.900;2024-02-26T04:37:24;33.13;;;30.07;;
11620;SDS011;5866;49.094;11.900;2024-02-26T04:39:59;42.67;;;38.63;;
11620;SDS011;5866;49.094;11.900;2024-02-26T04:42:27;35.03;;;31.83;;
11620;SDS011;5866;49.094;11.900;2024-02-26T04:44:55;38.30;;;35.13;;
11620;SDS011;5866;49.094;11.900;2024-02-26T04:47:23;35.70;;;32.60;;
11620;SDS011;5866;49.094;11.900;2024-02-26T04:49:50;38.87;;;35.43;;
11620;SDS011;5866;49.094;11.900;2024-02-26T04:52:19;38.93;;;35.77;;
11620;SDS011;5866;49.094;11.900;2024-02-26T04:54:46;41.93;;;38.33;;
11620;SDS011;5866;49.094;11.900;2024-02-26T04:57:15;38.87;;;35.60;;
11620;SDS011;5866;49.094;11.900;2024-02-26T04:59:44;52.80;;;48.57;;
11620;SDS011;5866;49.094;11.900;2024-02-26T05:02:13;50.07;;;46.30;;
11620;SDS011;5866;49.094;11.900;2024-02-26T05:04:41;47.43;;;43.53;;
11620;SDS011;5866;49.094;11.900;2024-02-26T05:07:09;42.43;;;38.97;;
11620;SDS011;5866;49.094;11.900;2024-02-26T05:09:36;35.80;;;32.53;;
11620;SDS011;5866;49.094;11.900;2024-02-26T05:12:04;35.60;;;32.43;;
11620;SDS011;5866;49.094;11.900;2024-02-26T05:14:34;39.80;;;36.40;;
11620;SDS011;5866;49.094;11.900;2024-02-26T05:17:01;36.03;;;33.20;;
11620;SDS011;5866;49.094;11.900;2024-02-26T05:19:29;38.70;;;35.00;;
11620;SDS011;5866;49.094;11.900;2024-02-26T05:21:57;37.23;;;33.77;;
11620;SDS011;5866;49.094;11.900;2024-02-26T05:24:24;33.83;;;30.43;;
11620;SDS011;5866;49.094;11.900;2024-02-26T05:26:52;33.27;;;30.23;;
11620;SDS011;5866;49.094;11.900;2024-02-26T05:29:21;36.07;;;32.87;;
11620;SDS011;5866;49.094;11.900;2024-02-26T05:31:49;34.60;;;31.70;;
11620;SDS011;5866;49.094;11.900;2024-02-26T05:34:17;35.83;;;32.63;;
11620;SDS011;5866;49.094;11.900;2024-02-26T05:36:45;36.93;;;33.63;;
11620;SDS011;5866;49.094;11.900;2024-02-26T05:39:12;20.47;;;17.77;;
11620;SDS011;5866;49.094;11.900;2024-02-26T05:41:44;23.33;;;21.03;;
11620;SDS011;5866;49.094;11.900;2024-02-26T05:44:12;26.40;;;23.70;;
11620;SDS011;5866;49.094;11.900;2024-02-26T05:46:41;26.50;;;23.77;;
11620;SDS011;5866;49.094;11.900;2024-02-26T05:49:10;22.80;;;20.57;;
11620;SDS011;5866;49.094;11.900;2024-02-26T05:51:38;33.47;;;30.47;;
11620;SDS011;5866;49.094;11.900;2024-02-26T05:54:05;33.27;;;30.03;;
11620;SDS011;5866;49.094;11.900;2024-02-26T05:56:34;42.10;;;38.83;;
11620;SDS011;5866;49.094;11.900;2024-02-26T05:59:02;40.00;;;36.77;;
11620;SDS011;5866;49.094;11.900;2024-02-26T06:01:30;39.67;;;36.27;;
11620;SDS011;5866;49.094;11.900;2024-02-26T06:03:58;40.53;;;37.33;;
11620;SDS011;5866;49.094;11.900;2024-02-26T06:06:27;38.70;;;35.47;;
11620;SDS011;5866;49.094;11.900;2024-02-26T06:08:55;31.47;;;28.70;;
11620;SDS011;5866;49.094;11.900;2024-02-26T06:11:22;33.17;;;29.93;;
11620;SDS011;5866;49.094;11.900;2024-02-26T06:13:50;34.07;;;30.90;;
11620;SDS011;5866;49.094;11.900;2024-02-26T06:16:17;41.00;;;37.70;;
11620;SDS011;5866;49.094;11.900;2024-02-26T06:18:45;26.93;;;24.17;;
11620;SDS011;5866;49.094;11.900;2024-02-26T06:21:13;34.93;;;31.67;;
11620;SDS011;5866;49.094;11.900;2024-02-26T06:23:42;29.17;;;26.37;;
11620;SDS011;5866;49.094;11.900;2024-02-26T06:26:09;32.43;;;29.43;;
11620;SDS011;5866;49.094;11.900;2024-02-26T06:28:37;42.50;;;39.20;;
11620;SDS011;5866;49.094;11.900;2024-02-26T06:31:07;47.13;;;43.43;;
11620;SDS011;5866;49.094;11.900;2024-02-26T06:33:34;79.57;;;74.20;;
11620;SDS011;5866;49.094;11.900;2024-02-26T06:36:02;97.97;;;91.47;;
11620;SDS011;5866;49.094;11.900;2024-02-26T06:38:31;99.20;;;92.80;;
11620;SDS011;5866;49.094;11.900;2024-02-26T06:40:59;100.77;;;93.87;;
11620;SDS011;5866;49.094;11.900;2024-02-26T06:43:29;115.70;;;107.80;;
11620;SDS011;5866;49.094;11.900;2024-02-26T06:45:57;131.43;;;123.30;;
11620;SDS011;5866;49.094;11.900;2024-02-26T06:48:24;104.83;;;98.17;;
11620;SDS011;5866;49.094;11.900;2024-02-26T06:50:52;121.10;;;113.67;;
11620;SDS011;5866;49.094;11.900;2024-02-26T06:53:20;120.97;;;112.90;;
11620;SDS011;5866;49.094;11.900;2024-02-26T06:55:47;133.67;;;125.43;;
11620;SDS011;5866;49.094;11.900;2024-02-26T06:58:17;121.90;;;114.07;;
11620;SDS011;5866;49.094;11.900;2024-02-26T07:00:45;134.77;;;126.37;;
11620;SDS011;5866;49.094;11.900;2024-02-26T07:03:13;117.17;;;109.70;;
11620;SDS011;5866;49.094;11.900;2024-02-26T07:05:41;100.23;;;93.63;;
11620;SDS011;5866;49.094;11.900;2024-02-26T07:08:11;111.53;;;104.57;;
11620;SDS011;5866;49.094;11.900;2024-02-26T07:10:39;104.87;;;98.07;;
11620;SDS011;5866;49.094;11.900;2024-02-26T07:13:06;108.00;;;100.80;;
11620;SDS011;5866;49.094;11.900;2024-02-26T07:15:35;102.93;;;95.97;;
11620;SDS011;5866;49.094;11.900;2024-02-26T07:18:03;120.63;;;113.00;;
11620;SDS011;5866;49.094;11.900;2024-02-26T07:20:31;135.90;;;127.10;;
11620;SDS011;5866;49.094;11.900;2024-02-26T07:22:59;105.93;;;98.50;;
11620;SDS011;5866;49.094;11.900;2024-02-26T07:25:27;100.03;;;93.57;;
11620;SDS011;5866;49.094;11.900;2024-02-26T07:27:54;80.33;;;74.83;;
11620;SDS011;5866;49.094;11.900;2024-02-26T07:30:22;76.40;;;71.03;;
11620;SDS011;5866;49.094;11.900;2024-02-26T07:32:52;79.93;;;74.43;;
11620;SDS011;5866;49.094;11.900;2024-02-26T07:35:20;87.00;;;81.23;;
11620;SDS011;5866;49.094;11.900;2024-02-26T07:37:47;92.13;;;86.20;;
11620;SDS011;5866;49.094;11.900;2024-02-26T07:40:16;82.93;;;77.17;;
11620;SDS011;5866;49.094;11.900;2024-02-26T07:42:43;51.53;;;47.53;;
11620;SDS011;5866;49.094;11.900;2024-02-26T07:45:11;54.60;;;50.70;;
11620;SDS011;5866;49.094;11.900;2024-02-26T07:47:38;24.20;;;16.50;;
11620;SDS011;5866;49.094;11.900;2024-02-26T07:50:09;75.40;;;70.40;;
11620;SDS011;5866;49.094;11.900;2024-02-26T07:52:38;55.47;;;51.50;;
11620;SDS011;5866;49.094;11.900;2024-02-26T07:55:06;33.57;;;30.97;;
11620;SDS011;5866;49.094;11.900;2024-02-26T07:57:34;57.50;;;53.80;;
11620;SDS011;5866;49.094;11.900;2024-02-26T08:00:02;53.43;;;49.93;;
11620;SDS011;5866;49.094;11.900;2024-02-26T08:02:33;64.47;;;60.17;;
11620;SDS011;5866;49.094;11.900;2024-02-26T08:05:01;47.67;;;44.43;;
11620;SDS011;5866;49.094;11.900;2024-02-26T08:07:30;39.50;;;36.67;;
11620;SDS011;5866;49.094;11.900;2024-02-26T08:09:57;75.13;;;70.73;;
11620;SDS011;5866;49.094;11.900;2024-02-26T08:12:25;31.60;;;29.20;;
11620;SDS011;5866;49.094;11.900;2024-02-26T08:14:53;74.50;;;69.93;;
11620;SDS011;5866;49.094;11.900;2024-02-26T08:17:22;56.60;;;53.10;;
11620;SDS011;5866;49.094;11.900;2024-02-26T08:19:49;56.10;;;52.53;;
11620;SDS011;5866;49.094;11.900;2024-02-26T08:22:17;19.83;;;18.17;;
11620;SDS011;5866;49.094;11.900;2024-02-26T08:24:46;33.93;;;31.47;;
11620;SDS011;5866;49.094;11.900;2024-02-26T08:27:13;45.63;;;42.67;;
11620;SDS011;5866;49.094;11.900;2024-02-26T08:29:41;16.30;;;14.70;;
11620;SDS011;5866;49.094;11.900;2024-02-26T08:32:09;43.53;;;40.80;;
11620;SDS011;5866;49.094;11.900;2024-02-26T08:34:36;23.40;;;21.67;;
11620;SDS011;5866;49.094;11.900;2024-02-26T08:37:05;21.40;;;19.80;;
11620;SDS011;5866;49.094;11.900;2024-02-26T08:39:33;17.93;;;16.53;;
11620;SDS011;5866;49.094;11.900;2024-02-26T08:42:02;40.77;;;38.17;;
11620;SDS011;5866;49.094;11.900;2024-02-26T08:44:30;33.43;;;31.13;;
11620;SDS011;5866;49.094;11.900;2024-02-26T08:46:58;9.77;;;7.97;;
11620;SDS011;5866;49.094;11.900;2024-02-26T08:49:25;16.30;;;15.07;;
11620;SDS011;5866;49.094;11.900;2024-02-26T08:51:53;21.10;;;19.40;;
11620;SDS011;5866;49.094;11.900;2024-02-26T08:54:20;10.83;;;9.90;;
11620;SDS011;5866;49.094;11.900;2024-02-26T08:56:48;14.77;;;13.57;;
11620;SDS011;5866;49.094;11.900;2024-02-26T08:59:17;11.77;;;10.80;;
11620;SDS011;5866;49.094;11.900;2024-02-26T09:01:48;9.97;;;8.90;;
11620;SDS011;5866;49.094;11.900;2024-02-26T09:04:16;10.00;;;9.00;;
11620;SDS011;5866;49.094;11.900;2024-02-26T09:06:44;9.03;;;8.13;;
11620;SDS011;5866;49.094;11.900;2024-02-26T09:09:11;10.50;;;8.97;;
11620;SDS011;5866;49.094;11.900;2024-02-26T09:11:39;11.20;;;8.87;;
11620;SDS011;5866;49.094;11.900;2024-02-26T09:14:07;10.17;;;9.27;;
11620;SDS011;5866;49.094;11.900;2024-02-26T09:16:36;13.60;;;12.50;;
11620;SDS011;5866;49.094;11.900;2024-02-26T09:19:03;144.83;;;137.10;;
11620;SDS011;5866;49.094;11.900;2024-02-26T09:21:31;34.77;;;32.53;;
11620;SDS011;5866;49.094;11.900;2024-02-26T09:23:59;15.73;;;14.60;;
11620;SDS011;5866;49.094;11.900;2024-02-26T09:26:27;13.63;;;12.57;;
11620;SDS011;5866;49.094;11.900;2024-02-26T09:28:54;10.03;;;9.10;;
11620;SDS011;5866;49.094;11.900;2024-02-26T09:31:22;8.88;;;7.70;;
11620;SDS011;5866;49.094;11.900;2024-02-26T09:33:51;7.13;;;5.67;;
11620;SDS011;5866;49.094;11.900;2024-02-26T09:36:19;8.03;;;5.60;;
11620;SDS011;5866;49.094;11.900;2024-02-26T09:38:47;6.85;;;6.15;;
11620;SDS011;5866;49.094;11.900;2024-02-26T09:41:26;7.70;;;6.20;;
11620;SDS011;5866;49.094;11.900;2024-02-26T09:43:56;7.25;;;5.90;;
11620;SDS011;5866;49.094;11.900;2024-02-26T09:46:26;6.97;;;5.93;;
11620;SDS011;5866;49.094;11.900;2024-02-26T09:48:55;8.40;;;6.30;;
11620;SDS011;5866;49.094;11.900;2024-02-26T09:51:23;6.47;;;5.78;;
11620;SDS011;5866;49.094;11.900;2024-02-26T09:53:52;6.20;;;5.60;;
11620;SDS011;5866;49.094;11.900;2024-02-26T09:56:20;6.75;;;6.05;;
11620;SDS011;5866;49.094;11.900;2024-02-26T09:58:48;7.88;;;6.22;;
11620;SDS011;5866;49.094;11.900;2024-02-26T10:01:20;6.75;;;6.10;;
11620;SDS011;5866;49.094;11.900;2024-02-26T10:03:51;6.50;;;5.60;;
11620;SDS011;5866;49.094;11.900;2024-02-26T10:06:23;7.22;;;6.43;;
11620;SDS011;5866;49.094;11.900;2024-02-26T10:08:51;7.50;;;6.70;;
11620;SDS011;5866;49.094;11.900;2024-02-26T10:11:20;8.32;;;6.32;;
11620;SDS011;5866;49.094;11.900;2024-02-26T10:13:49;7.15;;;6.15;;
11620;SDS011;5866;49.094;11.900;2024-02-26T10:16:17;6.75;;;5.97;;
11620;SDS011;5866;49.094;11.900;2024-02-26T10:18:45;7.32;;;6.40;;
11620;SDS011;5866;49.094;11.900;2024-02-26T10:21:26;8.13;;;6.90;;
11620;SDS011;5866;49.094;11.900;2024-02-26T10:23:54;6.82;;;6.13;;
11620;SDS011;5866;49.094;11.900;2024-02-26T10:26:21;7.75;;;6.95;;
11620;SDS011;5866;49.094;11.900;2024-02-26T10:28:49;8.23;;;6.05;;
11620;SDS011;5866;49.094;11.900;2024-02-26T10:31:21;8.20;;;6.55;;
11620;SDS011;5866;49.094;11.900;2024-02-26T10:33:49;8.52;;;6.20;;
11620;SDS011;5866;49.094;11.900;2024-02-26T10:36:17;9.57;;;7.03;;
11620;SDS011;5866;49.094;11.900;2024-02-26T10:38:46;8.30;;;6.18;;
11620;SDS011;5866;49.094;11.900;2024-02-26T10:41:15;9.70;;;6.95;;
11620;SDS011;5866;49.094;11.900;2024-02-26T10:43:42;7.85;;;6.45;;
11620;SDS011;5866;49.094;11.900;2024-02-26T10:46:10;12.30;;;7.10;;
11620;SDS011;5866;49.094;11.900;2024-02-26T10:48:38;7.15;;;6.22;;
11620;SDS011;5866;49.094;11.900;2024-02-26T10:51:06;9.95;;;7.53;;
11620;SDS011;5866;49.094;11.900;2024-02-26T10:53:38;9.18;;;7.20;;
11620;SDS011;5866;49.094;11.900;2024-02-26T10:56:11;8.20;;;7.30;;
11620;SDS011;5866;49.094;11.900;2024-02-26T10:58:40;9.05;;;7.63;;
11620;SDS011;5866;49.094;11.900;2024-02-26T11:01:09;7.32;;;6.38;;
11620;SDS011;5866;49.094;11.900;2024-02-26T11:03:38;8.18;;;6.25;;
11620;SDS011;5866;49.094;11.900;2024-02-26T11:06:07;7.90;;;6.75;;
11620;SDS011;5866;49.094;11.900;2024-02-26T11:08:36;8.43;;;6.53;;
11620;SDS011;5866;49.094;11.900;2024-02-26T11:11:05;8.07;;;6.57;;
11620;SDS011;5866;49.094;11.900;2024-02-26T11:13:35;9.23;;;6.95;;
11620;SDS011;5866;49.094;11.900;2024-02-26T11:16:08;8.77;;;6.40;;
11620;SDS011;5866;49.094;11.900;2024-02-26T11:18:36;7.20;;;6.50;;
11620;SDS011;5866;49.094;11.900;2024-02-26T11:21:08;7.75;;;6.95;;
11620;SDS011;5866;49.094;11.900;2024-02-26T11:23:36;8.15;;;7.35;;
11620;SDS011;5866;49.094;11.900;2024-02-26T11:26:04;8.30;;;6.78;;
11620;SDS011;5866;49.094;11.900;2024-02-26T11:28:33;10.63;;;7.07;;
11620;SDS011;5866;49.094;11.900;2024-02-26T11:31:03;7.15;;;6.35;;
11620;SDS011;5866;49.094;11.900;2024-02-26T11:33:33;8.45;;;6.68;;
11620;SDS011;5866;49.094;11.900;2024-02-26T11:36:02;7.32;;;6.53;;
11620;SDS011;5866;49.094;11.900;2024-02-26T11:38:36;7.63;;;5.88;;
11620;SDS011;5866;49.094;11.900;2024-02-26T11:41:04;10.45;;;6.60;;
11620;SDS011;5866;49.094;11.900;2024-02-26T11:43:49;7.85;;;6.35;;
11620;SDS011;5866;49.094;11.900;2024-02-26T11:46:28;8.25;;;6.60;;
11620;SDS011;5866;49.094;11.900;2024-02-26T11:49:01;8.10;;;6.45;;
11620;SDS011;5866;49.094;11.900;2024-02-26T11:51:32;9.75;;;6.88;;
11620;SDS011;5866;49.094;11.900;2024-02-26T11:54:01;6.97;;;6.28;;
11620;SDS011;5866;49.094;11.900;2024-02-26T11:56:29;7.60;;;6.72;;
11620;SDS011;5866;49.094;11.900;2024-02-26T11:58:59;8.00;;;7.20;;
11620;SDS011;5866;49.094;11.900;2024-02-26T12:04:26;7.40;;;6.63;;
11620;SDS011;5866;49.094;11.900;2024-02-26T12:06:55;8.15;;;6.88;;
11620;SDS011;5866;49.094;11.900;2024-02-26T12:09:33;7.25;;;6.50;;
11620;SDS011;5866;49.094;11.900;2024-02-26T12:12:02;9.35;;;6.82;;
11620;SDS011;5866;49.094;11.900;2024-02-26T12:14:32;8.73;;;6.43;;
11620;SDS011;5866;49.094;11.900;2024-02-26T12:17:02;6.72;;;5.95;;
11620;SDS011;5866;49.094;11.900;2024-02-26T12:19:33;7.03;;;6.30;;
11620;SDS011;5866;49.094;11.900;2024-02-26T12:22:03;8.18;;;6.68;;
11620;SDS011;5866;49.094;11.900;2024-02-26T12:24:33;7.40;;;6.70;;
11620;SDS011;5866;49.094;11.900;2024-02-26T12:27:01;7.60;;;6.63;;
11620;SDS011;5866;49.094;11.900;2024-02-26T12:29:29;8.52;;;5.70;;
11620;SDS011;5866;49.094;11.900;2024-02-26T12:31:57;6.90;;;6.20;;
11620;SDS011;5866;49.094;11.900;2024-02-26T12:34:26;7.85;;;6.65;;
11620;SDS011;5866;49.094;11.900;2024-02-26T12:36:54;7.22;;;6.53;;
11620;SDS011;5866;49.094;11.900;2024-02-26T12:39:21;6.55;;;5.90;;
11620;SDS011;5866;49.094;11.900;2024-02-26T12:41:49;7.35;;;5.72;;
11620;SDS011;5866;49.094;11.900;2024-02-26T12:44:17;7.13;;;6.38;;
11620;SDS011;5866;49.094;11.900;2024-02-26T12:46:44;6.60;;;6.00;;
11620;SDS011;5866;49.094;11.900;2024-02-26T12:49:14;6.70;;;5.75;;
11620;SDS011;5866;49.094;11.900;2024-02-26T12:51:44;9.52;;;8.52;;
11620;SDS011;5866;49.094;11.900;2024-02-26T12:54:12;6.88;;;6.25;;
11620;SDS011;5866;49.094;11.900;2024-02-26T12:56:40;7.22;;;6.53;;
11620;SDS011;5866;49.094;11.900;2024-02-26T12:59:08;7.95;;;7.15;;
11620;SDS011;5866;49.094;11.900;2024-02-26T13:01:36;7.10;;;5.43;;
11620;SDS011;5866;49.094;11.900;2024-02-26T13:04:04;10.85;;;6.63;;
11620;SDS011;5866;49.094;11.900;2024-02-26T13:06:33;8.95;;;6.65;;
11620;SDS011;5866;49.094;11.900;2024-02-26T13:09:02;7.35;;;5.70;;
11620;SDS011;5866;49.094;11.900;2024-02-26T13:11:30;8.38;;;6.50;;
11620;SDS011;5866;49.094;11.900;2024-02-26T13:13:59;6.35;;;5.68;;
11620;SDS011;5866;49.094;11.900;2024-02-26T13:16:26;8.40;;;6.68;;
11620;SDS011;5866;49.094;11.900;2024-02-26T13:18:54;8.15;;;5.53;;
11620;SDS011;5866;49.094;11.900;2024-02-26T13:21:22;7.50;;;5.70;;
11620;SDS011;5866;49.094;11.900;2024-02-26T13:23:51;8.00;;;7.20;;
11620;SDS011;5866;49.094;11.900;2024-02-26T13:26:22;7.35;;;6.75;;
11620;SDS011;5866;49.094;11.900;2024-02-26T13:29:00;10.00;;;8.35;;
11620;SDS011;5866;49.094;11.900;2024-02-26T13:31:29;6.82;;;6.05;;
11620;SDS011;5866;49.094;11.900;2024-02-26T13:33:57;9.68;;;6.95;;
11620;SDS011;5866;49.094;11.900;2024-02-26T13:36:25;10.52;;;7.95;;
11620;SDS011;5866;49.094;11.900;2024-02-26T13:38:53;7.03;;;6.10;;
11620;SDS011;5866;49.094;11.900;2024-02-26T13:41:22;12.50;;;7.88;;
11620;SDS011;5866;49.094;11.900;2024-02-26T13:43:50;9.43;;;6.10;;
11620;SDS011;5866;49.094;11.900;2024-02-26T13:46:18;6.28;;;5.45;;
11620;SDS011;5866;49.094;11.900;2024-02-26T13:48:45;5.25;;;4.75;;
11620;SDS011;5866;49.094;11.900;2024-02-26T13:51:13;12.23;;;8.25;;
11620;SDS011;5866;49.094;11.900;2024-02-26T13:53:43;8.50;;;6.57;;
11620;SDS011;5866;49.094;11.900;2024-02-26T13:56:10;6.15;;;5.25;;
11620;SDS011;5866;49.094;11.900;2024-02-26T13:58:39;6.68;;;5.28;;
11620;SDS011;5866;49.094;11.900;2024-02-26T14:01:07;7.60;;;4.85;;
11620;SDS011;5866;49.094;11.900;2024-02-26T14:03:35;7.45;;;5.32;;
11620;SDS011;5866;49.094;11.900;2024-02-26T14:06:02;5.50;;;4.90;;
11620;SDS011;5866;49.094;11.900;2024-02-26T14:08:31;8.18;;;6.20;;
11620;SDS011;5866;49.094;11.900;2024-02-26T14:10:58;5.72;;;4.95;;
11620;SDS011;5866;49.094;11.900;2024-02-26T14:13:26;10.82;;;6.53;;
11620;SDS011;5866;49.094;11.900;2024-02-26T14:15:55;7.85;;;5.93;;
11620;SDS011;5866;49.094;11.900;2024-02-26T14:18:23;6.35;;;5.35;;
11620;SDS011;5866;49.094;11.900;2024-02-26T14:20:51;5.25;;;4.30;;
11620;SDS011;5866;49.094;11.900;2024-02-26T14:23:19;6.10;;;4.10;;
11620;SDS011;5866;49.094;11.900;2024-02-26T14:25:46;6.97;;;6.32;;
11620;SDS011;5866;49.094;11.900;2024-02-26T14:28:14;4.55;;;3.97;;
11620;SDS011;5866;49.094;11.900;2024-02-26T14:30:50;6.15;;;4.70;;
11620;SDS011;5866;49.094;11.900;2024-02-26T14:33:19;12.27;;;7.05;;
11620;SDS011;5866;49.094;11.900;2024-02-26T14:35:47;7.38;;;5.20;;
11620;SDS011;5866;49.094;11.900;2024-02-26T14:38:15;7.70;;;5.65;;